sensor_id;sensor_type;location;lat;lon;timestamp;temperature;humidity
2389;DHT22;1205;47.984;7.668;2024-01-27T00:01:33;4.80;99.90
2389;DHT22;1205;47.984;7.668;2024-01-27T00:03:58;4.80;99.90
2389;DHT22;1205;47.984;7.668;2024-01-27T00:06:24;4.70;99.90
2389;DHT22;1205;47.984;7.668;2024-01-27T00:08:50;4.70;99.90
2389;DHT22;1205;47.984;7.668;2024-01-27T00:11:15;4.70;99.90
2389;DHT22;1205;47.984;7.668;2024-01-27T00:13:41;4.70;99.90
2389;DHT22;1205;47.984;7.668;2024-01-27T00:16:07;4.60;99.90
2389;DHT22;1205;47.984;7.668;2024-01-27T00:18:35;4.70;99.90
2389;DHT22;1205;47.984;7.668;2024-01-27T00:21:00;4.70;99.90
2389;DHT22;1205;47.984;7.668;2024-01-27T00:23:26;4.70;99.90
2389;DHT22;1205;47.984;7.668;2024-01-27T00:25:52;4.70;99.90
2389;DHT22;1205;47.984;7.668;2024-01-27T00:28:18;4.50;99.90
2389;DHT22;1205;47.984;7.668;2024-01-27T00:30:43;4.40;99.90
2389;DHT22;1205;47.984;7.668;2024-01-27T00:33:09;4.30;99.90
2389;DHT22;1205;47.984;7.668;2024-01-27T00:35:34;4.20;99.90
2389;DHT22;1205;47.984;7.668;2024-01-27T00:38:00;4.20;99.90
2389;DHT22;1205;47.984;7.668;2024-01-27T00:40:25;4.20;99.90
2389;DHT22;1205;47.984;7.668;2024-01-27T00:42:51;4.20;99.90
2389;DHT22;1205;47.984;7.668;2024-01-27T00:45:16;4.20;99.90
2389;DHT22;1205;47.984;7.668;2024-01-27T00:47:42;4.10;99.90
2389;DHT22;1205;47.984;7.668;2024-01-27T00:50:08;4.00;99.90
2389;DHT22;1205;47.984;7.668;2024-01-27T00:52:34;4.10;99.90
2389;DHT22;1205;47.984;7.668;2024-01-27T00:55:00;4.10;99.90
2389;DHT22;1205;47.984;7.668;2024-01-27T00:57:26;4.20;99.90
2389;DHT22;1205;47.984;7.668;2024-01-27T00:59:51;4.60;99.90
2389;DHT22;1205;47.984;7.668;2024-01-27T01:02:17;4.70;99.90
2389;DHT22;1205;47.984;7.668;2024-01-27T01:04:42;4.80;99.90
2389;DHT22;1205;47.984;7.668;2024-01-27T01:07:08;5.00;99.90
2389;DHT22;1205;47.984;7.668;2024-01-27T01:09:34;5.10;99.90
2389;DHT22;1205;47.984;7.668;2024-01-27T01:12:00;5.20;99.90
2389;DHT22;1205;47.984;7.668;2024-01-27T01:14:25;5.20;99.90
2389;DHT22;1205;47.984;7.668;2024-01-27T01:16:51;5.30;99.90
2389;DHT22;1205;47.984;7.668;2024-01-27T01:19:16;5.30;99.90
2389;DHT22;1205;47.984;7.668;2024-01-27T01:21:42;5.30;99.90
2389;DHT22;1205;47.984;7.668;2024-01-27T01:24:07;5.30;99.90
2389;DHT22;1205;47.984;7.668;2024-01-27T01:26:33;5.30;99.90
2389;DHT22;1205;47.984;7.668;2024-01-27T01:28:59;5.40;99.90
2389;DHT22;1205;47.984;7.668;2024-01-27T01:31:24;5.40;99.90
2389;DHT22;1205;47.984;7.668;2024-01-27T01:33:50;5.40;99.90
2389;DHT22;1205;47.984;7.668;2024-01-27T01:36:16;5.40;99.90
2389;DHT22;1205;47.984;7.668;2024-01-27T01:38:41;5.40;99.90
2389;DHT22;1205;47.984;7.668;2024-01-27T01:41:07;5.30;99.90
2389;DHT22;1205;47.984;7.668;2024-01-27T01:43:33;5.30;99.90
2389;DHT22;1205;47.984;7.668;2024-01-27T01:45:59;5.30;99.90
2389;DHT22;1205;47.984;7.668;2024-01-27T01:48:24;5.20;99.90
2389;DHT22;1205;47.984;7.668;2024-01-27T01:50:50;5.00;99.90
2389;DHT22;1205;47.984;7.668;2024-01-27T01:53:16;5.00;99.90
2389;DHT22;1205;47.984;7.668;2024-01-27T01:55:41;4.80;99.90
2389;DHT22;1205;47.984;7.668;2024-01-27T01:58:07;4.70;99.90
2389;DHT22;1205;47.984;7.668;2024-01-27T02:00:33;4.70;99.90
2389;DHT22;1205;47.984;7.668;2024-01-27T02:02:58;4.70;99.90
2389;DHT22;1205;47.984;7.668;2024-01-27T02:05:24;4.70;99.90
2389;DHT22;1205;47.984;7.668;2024-01-27T02:07:50;4.70;99.90
2389;DHT22;1205;47.984;7.668;2024-01-27T02:10:17;4.80;99.90
2389;DHT22;1205;47.984;7.668;2024-01-27T02:12:44;4.80;99.90
2389;DHT22;1205;47.984;7.668;2024-01-27T02:15:13;4.80;99.90
2389;DHT22;1205;47.984;7.668;2024-01-27T02:17:40;4.90;99.90
2389;DHT22;1205;47.984;7.668;2024-01-27T02:20:06;5.00;99.90
2389;DHT22;1205;47.984;7.668;2024-01-27T02:22:33;4.90;99.90
2389;DHT22;1205;47.984;7.668;2024-01-27T02:24:59;5.00;99.90
2389;DHT22;1205;47.984;7.668;2024-01-27T02:27:24;5.00;99.90
2389;DHT22;1205;47.984;7.668;2024-01-27T02:29:50;5.00;99.90
2389;DHT22;1205;47.984;7.668;2024-01-27T02:32:15;5.00;99.90
2389;DHT22;1205;47.984;7.668;2024-01-27T02:34:41;4.90;99.90
2389;DHT22;1205;47.984;7.668;2024-01-27T02:37:06;4.80;99.90
2389;DHT22;1205;47.984;7.668;2024-01-27T02:39:32;4.70;99.90
2389;DHT22;1205;47.984;7.668;2024-01-27T02:41:58;4.70;99.90
2389;DHT22;1205;47.984;7.668;2024-01-27T02:44:23;4.60;99.90
2389;DHT22;1205;47.984;7.668;2024-01-27T02:46:49;4.50;99.90
2389;DHT22;1205;47.984;7.668;2024-01-27T02:49:14;4.50;99.90
2389;DHT22;1205;47.984;7.668;2024-01-27T02:51:40;4.40;99.90
2389;DHT22;1205;47.984;7.668;2024-01-27T02:54:06;4.30;99.90
2389;DHT22;1205;47.984;7.668;2024-01-27T02:56:31;4.40;99.90
2389;DHT22;1205;47.984;7.668;2024-01-27T02:58:57;4.50;99.90
2389;DHT22;1205;47.984;7.668;2024-01-27T03:01:22;4.50;99.90
2389;DHT22;1205;47.984;7.668;2024-01-27T03:03:48;4.40;99.90
2389;DHT22;1205;47.984;7.668;2024-01-27T03:06:13;4.40;99.90
2389;DHT22;1205;47.984;7.668;2024-01-27T03:08:39;4.50;99.90
2389;DHT22;1205;47.984;7.668;2024-01-27T03:11:04;4.50;99.90
2389;DHT22;1205;47.984;7.668;2024-01-27T03:13:30;4.40;99.90
2389;DHT22;1205;47.984;7.668;2024-01-27T03:15:55;4.50;99.90
2389;DHT22;1205;47.984;7.668;2024-01-27T03:18:21;4.50;99.90
2389;DHT22;1205;47.984;7.668;2024-01-27T03:20:47;4.40;99.90
2389;DHT22;1205;47.984;7.668;2024-01-27T03:23:13;4.40;99.90
2389;DHT22;1205;47.984;7.668;2024-01-27T03:25:38;4.50;99.90
2389;DHT22;1205;47.984;7.668;2024-01-27T03:28:04;4.40;99.90
2389;DHT22;1205;47.984;7.668;2024-01-27T03:30:29;4.40;99.90
2389;DHT22;1205;47.984;7.668;2024-01-27T03:32:55;4.40;99.90
2389;DHT22;1205;47.984;7.668;2024-01-27T03:35:20;4.40;99.90
2389;DHT22;1205;47.984;7.668;2024-01-27T03:37:46;4.40;99.90
2389;DHT22;1205;47.984;7.668;2024-01-27T03:40:12;4.40;99.90
2389;DHT22;1205;47.984;7.668;2024-01-27T03:42:38;4.40;99.90
2389;DHT22;1205;47.984;7.668;2024-01-27T03:45:04;4.30;99.90
2389;DHT22;1205;47.984;7.668;2024-01-27T03:47:29;4.40;99.90
2389;DHT22;1205;47.984;7.668;2024-01-27T03:49:55;4.30;99.90
2389;DHT22;1205;47.984;7.668;2024-01-27T03:52:20;4.40;99.90
2389;DHT22;1205;47.984;7.668;2024-01-27T03:54:46;4.30;99.90
2389;DHT22;1205;47.984;7.668;2024-01-27T03:57:11;4.40;99.90
2389;DHT22;1205;47.984;7.668;2024-01-27T03:59:39;4.40;99.90
2389;DHT22;1205;47.984;7.668;2024-01-27T04:02:05;4.40;99.90
2389;DHT22;1205;47.984;7.668;2024-01-27T04:04:30;4.30;99.90
2389;DHT22;1205;47.984;7.668;2024-01-27T04:06:56;4.30;99.90
2389;DHT22;1205;47.984;7.668;2024-01-27T04:09:21;4.30;99.90
2389;DHT22;1205;47.984;7.668;2024-01-27T04:11:47;4.20;99.90
2389;DHT22;1205;47.984;7.668;2024-01-27T04:14:12;4.20;99.90
2389;DHT22;1205;47.984;7.668;2024-01-27T04:16:38;4.20;99.90
2389;DHT22;1205;47.984;7.668;2024-01-27T04:19:05;4.10;99.90
2389;DHT22;1205;47.984;7.668;2024-01-27T04:21:30;4.00;99.90
2389;DHT22;1205;47.984;7.668;2024-01-27T04:23:56;4.00;99.90
2389;DHT22;1205;47.984;7.668;2024-01-27T04:26:21;3.90;99.90
2389;DHT22;1205;47.984;7.668;2024-01-27T04:28:47;3.90;99.90
2389;DHT22;1205;47.984;7.668;2024-01-27T04:31:12;3.80;99.90
2389;DHT22;1205;47.984;7.668;2024-01-27T04:33:38;3.70;99.90
2389;DHT22;1205;47.984;7.668;2024-01-27T04:36:04;3.70;99.90
2389;DHT22;1205;47.984;7.668;2024-01-27T04:38:32;3.60;99.90
2389;DHT22;1205;47.984;7.668;2024-01-27T04:40:58;3.50;99.90
2389;DHT22;1205;47.984;7.668;2024-01-27T04:43:23;3.40;99.90
2389;DHT22;1205;47.984;7.668;2024-01-27T04:45:49;3.50;99.90
2389;DHT22;1205;47.984;7.668;2024-01-27T04:48:15;3.40;99.90
2389;DHT22;1205;47.984;7.668;2024-01-27T04:50:40;3.40;99.90
2389;DHT22;1205;47.984;7.668;2024-01-27T04:53:06;3.50;99.90
2389;DHT22;1205;47.984;7.668;2024-01-27T04:55:32;3.50;99.90
2389;DHT22;1205;47.984;7.668;2024-01-27T04:57:57;3.50;99.90
2389;DHT22;1205;47.984;7.668;2024-01-27T05:00:24;3.50;99.90
2389;DHT22;1205;47.984;7.668;2024-01-27T05:02:52;3.50;99.90
2389;DHT22;1205;47.984;7.668;2024-01-27T05:05:17;3.40;99.90
2389;DHT22;1205;47.984;7.668;2024-01-27T05:07:43;3.40;99.90
2389;DHT22;1205;47.984;7.668;2024-01-27T05:10:10;3.40;99.90
2389;DHT22;1205;47.984;7.668;2024-01-27T05:12:37;3.40;99.90
2389;DHT22;1205;47.984;7.668;2024-01-27T05:15:03;3.30;99.90
2389;DHT22;1205;47.984;7.668;2024-01-27T05:17:28;3.20;99.90
2389;DHT22;1205;47.984;7.668;2024-01-27T05:19:54;3.10;99.90
2389;DHT22;1205;47.984;7.668;2024-01-27T05:22:20;3.00;99.90
2389;DHT22;1205;47.984;7.668;2024-01-27T05:24:45;3.00;99.90
2389;DHT22;1205;47.984;7.668;2024-01-27T05:27:11;3.00;99.90
2389;DHT22;1205;47.984;7.668;2024-01-27T05:29:37;3.00;99.90
2389;DHT22;1205;47.984;7.668;2024-01-27T05:32:03;2.90;99.90
2389;DHT22;1205;47.984;7.668;2024-01-27T05:34:28;2.80;99.90
2389;DHT22;1205;47.984;7.668;2024-01-27T05:36:54;2.80;99.90
2389;DHT22;1205;47.984;7.668;2024-01-27T05:39:20;2.70;99.90
2389;DHT22;1205;47.984;7.668;2024-01-27T05:41:45;2.60;99.90
2389;DHT22;1205;47.984;7.668;2024-01-27T05:44:11;2.60;99.90
2389;DHT22;1205;47.984;7.668;2024-01-27T05:46:36;2.70;99.90
2389;DHT22;1205;47.984;7.668;2024-01-27T05:49:02;2.60;99.90
2389;DHT22;1205;47.984;7.668;2024-01-27T05:51:29;2.60;99.90
2389;DHT22;1205;47.984;7.668;2024-01-27T05:53:56;2.50;99.90
2389;DHT22;1205;47.984;7.668;2024-01-27T05:56:21;2.50;99.90
2389;DHT22;1205;47.984;7.668;2024-01-27T05:58:50;2.40;99.90
2389;DHT22;1205;47.984;7.668;2024-01-27T06:01:18;2.40;99.90
2389;DHT22;1205;47.984;7.668;2024-01-27T06:03:44;2.40;99.90
2389;DHT22;1205;47.984;7.668;2024-01-27T06:06:10;2.40;99.90
2389;DHT22;1205;47.984;7.668;2024-01-27T06:08:36;2.40;99.90
2389;DHT22;1205;47.984;7.668;2024-01-27T06:11:02;2.40;99.90
2389;DHT22;1205;47.984;7.668;2024-01-27T06:13:28;2.40;99.90
2389;DHT22;1205;47.984;7.668;2024-01-27T06:15:54;2.30;99.90
2389;DHT22;1205;47.984;7.668;2024-01-27T06:18:20;2.30;99.90
2389;DHT22;1205;47.984;7.668;2024-01-27T06:20:46;2.30;99.90
2389;DHT22;1205;47.984;7.668;2024-01-27T06:23:11;2.30;99.90
2389;DHT22;1205;47.984;7.668;2024-01-27T06:25:37;2.20;99.90
2389;DHT22;1205;47.984;7.668;2024-01-27T06:28:03;2.20;99.90
2389;DHT22;1205;47.984;7.668;2024-01-27T06:30:28;2.20;99.90
2389;DHT22;1205;47.984;7.668;2024-01-27T06:32:54;2.20;99.90
2389;DHT22;1205;47.984;7.668;2024-01-27T06:35:19;2.10;99.90
2389;DHT22;1205;47.984;7.668;2024-01-27T06:37:45;2.10;99.90
2389;DHT22;1205;47.984;7.668;2024-01-27T06:40:11;2.10;99.90
2389;DHT22;1205;47.984;7.668;2024-01-27T06:42:37;2.10;99.90
2389;DHT22;1205;47.984;7.668;2024-01-27T06:45:03;2.00;99.90
2389;DHT22;1205;47.984;7.668;2024-01-27T06:47:29;2.00;99.90
2389;DHT22;1205;47.984;7.668;2024-01-27T06:49:55;2.00;99.90
2389;DHT22;1205;47.984;7.668;2024-01-27T06:52:20;2.00;99.90
2389;DHT22;1205;47.984;7.668;2024-01-27T06:54:46;2.10;99.90
2389;DHT22;1205;47.984;7.668;2024-01-27T06:57:19;2.00;99.90
2389;DHT22;1205;47.984;7.668;2024-01-27T06:59:49;2.00;99.90
2389;DHT22;1205;47.984;7.668;2024-01-27T07:02:19;2.00;99.90
2389;DHT22;1205;47.984;7.668;2024-01-27T07:04:44;1.90;99.90
2389;DHT22;1205;47.984;7.668;2024-01-27T07:07:10;1.90;99.90
2389;DHT22;1205;47.984;7.668;2024-01-27T07:09:35;1.90;99.90
2389;DHT22;1205;47.984;7.668;2024-01-27T07:12:01;1.80;99.90
2389;DHT22;1205;47.984;7.668;2024-01-27T07:14:27;1.90;99.90
2389;DHT22;1205;47.984;7.668;2024-01-27T07:16:53;2.00;99.90
2389;DHT22;1205;47.984;7.668;2024-01-27T07:19:18;1.90;99.90
2389;DHT22;1205;47.984;7.668;2024-01-27T07:21:44;1.80;99.90
2389;DHT22;1205;47.984;7.668;2024-01-27T07:24:09;1.80;99.90
2389;DHT22;1205;47.984;7.668;2024-01-27T07:26:35;1.90;99.90
2389;DHT22;1205;47.984;7.668;2024-01-27T07:29:00;1.90;99.90
2389;DHT22;1205;47.984;7.668;2024-01-27T07:31:26;1.90;99.90
2389;DHT22;1205;47.984;7.668;2024-01-27T07:33:52;1.80;99.90
2389;DHT22;1205;47.984;7.668;2024-01-27T07:36:17;1.80;99.90
2389;DHT22;1205;47.984;7.668;2024-01-27T07:38:43;1.80;99.90
2389;DHT22;1205;47.984;7.668;2024-01-27T07:41:08;1.80;99.90
2389;DHT22;1205;47.984;7.668;2024-01-27T07:43:34;1.70;99.90
2389;DHT22;1205;47.984;7.668;2024-01-27T07:45:59;1.80;99.90
2389;DHT22;1205;47.984;7.668;2024-01-27T07:48:25;1.80;99.90
2389;DHT22;1205;47.984;7.668;2024-01-27T07:50:50;1.80;99.90
2389;DHT22;1205;47.984;7.668;2024-01-27T07:53:17;1.80;99.90
2389;DHT22;1205;47.984;7.668;2024-01-27T07:55:42;1.80;99.90
2389;DHT22;1205;47.984;7.668;2024-01-27T07:58:08;1.80;99.90
2389;DHT22;1205;47.984;7.668;2024-01-27T08:00:33;1.70;99.90
2389;DHT22;1205;47.984;7.668;2024-01-27T08:02:59;1.80;99.90
2389;DHT22;1205;47.984;7.668;2024-01-27T08:05:24;1.80;99.90
2389;DHT22;1205;47.984;7.668;2024-01-27T08:07:50;2.30;99.90
2389;DHT22;1205;47.984;7.668;2024-01-27T08:10:16;4.00;99.90
2389;DHT22;1205;47.984;7.668;2024-01-27T08:12:41;4.70;99.90
2389;DHT22;1205;47.984;7.668;2024-01-27T08:15:07;4.70;99.90
2389;DHT22;1205;47.984;7.668;2024-01-27T08:17:33;3.70;99.90
2389;DHT22;1205;47.984;7.668;2024-01-27T08:19:58;3.20;99.90
2389;DHT22;1205;47.984;7.668;2024-01-27T08:22:25;2.90;99.90
2389;DHT22;1205;47.984;7.668;2024-01-27T08:24:50;2.70;99.90
2389;DHT22;1205;47.984;7.668;2024-01-27T08:27:16;2.50;99.90
2389;DHT22;1205;47.984;7.668;2024-01-27T08:29:41;2.50;99.90
2389;DHT22;1205;47.984;7.668;2024-01-27T08:32:07;2.40;99.90
2389;DHT22;1205;47.984;7.668;2024-01-27T08:34:32;2.30;99.90
2389;DHT22;1205;47.984;7.668;2024-01-27T08:37:00;2.30;99.90
2389;DHT22;1205;47.984;7.668;2024-01-27T08:39:26;2.30;99.90
2389;DHT22;1205;47.984;7.668;2024-01-27T08:41:52;2.40;99.90
2389;DHT22;1205;47.984;7.668;2024-01-27T08:44:17;2.30;99.90
2389;DHT22;1205;47.984;7.668;2024-01-27T08:46:43;2.40;99.90
2389;DHT22;1205;47.984;7.668;2024-01-27T08:49:08;2.30;99.90
2389;DHT22;1205;47.984;7.668;2024-01-27T08:51:34;2.40;99.90
2389;DHT22;1205;47.984;7.668;2024-01-27T08:54:00;2.40;99.90
2389;DHT22;1205;47.984;7.668;2024-01-27T08:56:26;2.50;99.90
2389;DHT22;1205;47.984;7.668;2024-01-27T08:58:51;2.50;99.90
2389;DHT22;1205;47.984;7.668;2024-01-27T09:01:18;2.50;99.90
2389;DHT22;1205;47.984;7.668;2024-01-27T09:03:44;2.50;99.90
2389;DHT22;1205;47.984;7.668;2024-01-27T09:06:10;2.50;99.90
2389;DHT22;1205;47.984;7.668;2024-01-27T09:08:35;2.50;99.90
2389;DHT22;1205;47.984;7.668;2024-01-27T09:11:02;2.50;99.90
2389;DHT22;1205;47.984;7.668;2024-01-27T09:13:27;2.60;99.90
2389;DHT22;1205;47.984;7.668;2024-01-27T09:15:53;2.60;99.90
2389;DHT22;1205;47.984;7.668;2024-01-27T09:18:19;2.70;99.90
2389;DHT22;1205;47.984;7.668;2024-01-27T09:20:44;2.80;99.90
2389;DHT22;1205;47.984;7.668;2024-01-27T09:23:10;2.80;99.90
2389;DHT22;1205;47.984;7.668;2024-01-27T09:25:35;2.90;99.90
2389;DHT22;1205;47.984;7.668;2024-01-27T09:28:01;2.90;99.90
2389;DHT22;1205;47.984;7.668;2024-01-27T09:30:27;3.10;99.90
2389;DHT22;1205;47.984;7.668;2024-01-27T09:32:52;3.10;99.90
2389;DHT22;1205;47.984;7.668;2024-01-27T09:35:18;3.20;99.90
2389;DHT22;1205;47.984;7.668;2024-01-27T09:37:43;3.20;99.90
2389;DHT22;1205;47.984;7.668;2024-01-27T09:40:12;3.30;99.90
2389;DHT22;1205;47.984;7.668;2024-01-27T09:42:38;3.30;99.90
2389;DHT22;1205;47.984;7.668;2024-01-27T09:45:05;3.40;99.90
2389;DHT22;1205;47.984;7.668;2024-01-27T09:47:30;3.50;99.90
2389;DHT22;1205;47.984;7.668;2024-01-27T09:49:56;3.60;99.90
2389;DHT22;1205;47.984;7.668;2024-01-27T09:52:22;3.60;99.90
2389;DHT22;1205;47.984;7.668;2024-01-27T09:54:48;3.70;99.90
2389;DHT22;1205;47.984;7.668;2024-01-27T09:57:14;3.70;99.90
2389;DHT22;1205;47.984;7.668;2024-01-27T09:59:43;3.80;99.90
2389;DHT22;1205;47.984;7.668;2024-01-27T10:02:11;3.90;99.90
2389;DHT22;1205;47.984;7.668;2024-01-27T10:04:41;4.00;99.90
2389;DHT22;1205;47.984;7.668;2024-01-27T10:07:08;4.00;99.90
2389;DHT22;1205;47.984;7.668;2024-01-27T10:09:33;4.10;99.90
2389;DHT22;1205;47.984;7.668;2024-01-27T10:12:01;4.10;99.90
2389;DHT22;1205;47.984;7.668;2024-01-27T10:14:38;4.20;99.90
2389;DHT22;1205;47.984;7.668;2024-01-27T10:17:04;4.30;99.90
2389;DHT22;1205;47.984;7.668;2024-01-27T10:19:30;4.40;99.90
2389;DHT22;1205;47.984;7.668;2024-01-27T10:22:02;4.40;99.90
2389;DHT22;1205;47.984;7.668;2024-01-27T10:24:28;4.50;99.90
2389;DHT22;1205;47.984;7.668;2024-01-27T10:27:03;4.50;99.90
2389;DHT22;1205;47.984;7.668;2024-01-27T10:29:30;4.50;99.90
2389;DHT22;1205;47.984;7.668;2024-01-27T10:32:06;4.50;99.90
2389;DHT22;1205;47.984;7.668;2024-01-27T10:34:32;4.60;99.90
2389;DHT22;1205;47.984;7.668;2024-01-27T10:36:57;4.60;99.90
2389;DHT22;1205;47.984;7.668;2024-01-27T10:39:23;4.60;99.90
2389;DHT22;1205;47.984;7.668;2024-01-27T10:41:52;4.60;99.90
2389;DHT22;1205;47.984;7.668;2024-01-27T10:44:18;4.70;99.90
2389;DHT22;1205;47.984;7.668;2024-01-27T10:46:46;4.70;99.90
2389;DHT22;1205;47.984;7.668;2024-01-27T10:49:16;4.70;99.90
2389;DHT22;1205;47.984;7.668;2024-01-27T10:51:59;4.80;99.90
2389;DHT22;1205;47.984;7.668;2024-01-27T10:54:27;4.80;99.90
2389;DHT22;1205;47.984;7.668;2024-01-27T10:56:55;4.90;99.90
2389;DHT22;1205;47.984;7.668;2024-01-27T10:59:22;4.90;99.90
2389;DHT22;1205;47.984;7.668;2024-01-27T11:01:49;5.00;99.90
2389;DHT22;1205;47.984;7.668;2024-01-27T11:04:19;5.00;99.90
2389;DHT22;1205;47.984;7.668;2024-01-27T11:06:47;5.10;99.90
2389;DHT22;1205;47.984;7.668;2024-01-27T11:09:14;5.10;99.90
2389;DHT22;1205;47.984;7.668;2024-01-27T11:11:41;5.20;99.90
2389;DHT22;1205;47.984;7.668;2024-01-27T11:14:07;5.20;99.90
2389;DHT22;1205;47.984;7.668;2024-01-27T11:16:35;5.30;99.90
2389;DHT22;1205;47.984;7.668;2024-01-27T11:19:01;5.30;99.90
2389;DHT22;1205;47.984;7.668;2024-01-27T11:21:27;5.40;99.90
2389;DHT22;1205;47.984;7.668;2024-01-27T11:23:53;5.40;99.90
2389;DHT22;1205;47.984;7.668;2024-01-27T11:26:22;5.40;99.90
2389;DHT22;1205;47.984;7.668;2024-01-27T11:28:51;5.50;99.90
2389;DHT22;1205;47.984;7.668;2024-01-27T11:31:18;5.60;99.90
2389;DHT22;1205;47.984;7.668;2024-01-27T11:33:47;5.60;99.90
2389;DHT22;1205;47.984;7.668;2024-01-27T11:36:22;5.70;99.90
2389;DHT22;1205;47.984;7.668;2024-01-27T11:38:49;5.70;99.90
2389;DHT22;1205;47.984;7.668;2024-01-27T11:41:29;5.80;99.90
2389;DHT22;1205;47.984;7.668;2024-01-27T11:43:57;5.90;99.90
2389;DHT22;1205;47.984;7.668;2024-01-27T11:46:23;5.90;99.90
2389;DHT22;1205;47.984;7.668;2024-01-27T11:48:49;5.90;99.90
2389;DHT22;1205;47.984;7.668;2024-01-27T11:51:15;5.90;99.90
2389;DHT22;1205;47.984;7.668;2024-01-27T11:53:40;5.90;99.90
2389;DHT22;1205;47.984;7.668;2024-01-27T11:56:06;6.00;99.90
2389;DHT22;1205;47.984;7.668;2024-01-27T11:58:33;6.10;99.90
2389;DHT22;1205;47.984;7.668;2024-01-27T12:00:59;6.20;99.90
2389;DHT22;1205;47.984;7.668;2024-01-27T12:03:27;6.40;99.90
2389;DHT22;1205;47.984;7.668;2024-01-27T12:05:54;6.40;99.90
2389;DHT22;1205;47.984;7.668;2024-01-27T12:08:20;6.30;99.90
2389;DHT22;1205;47.984;7.668;2024-01-27T12:10:46;6.40;99.90
2389;DHT22;1205;47.984;7.668;2024-01-27T12:13:12;6.40;99.90
2389;DHT22;1205;47.984;7.668;2024-01-27T12:15:37;6.50;99.90
2389;DHT22;1205;47.984;7.668;2024-01-27T12:18:06;6.50;99.90
2389;DHT22;1205;47.984;7.668;2024-01-27T12:20:32;6.60;99.90
2389;DHT22;1205;47.984;7.668;2024-01-27T12:23:05;6.60;99.90
2389;DHT22;1205;47.984;7.668;2024-01-27T12:25:30;6.70;99.90
2389;DHT22;1205;47.984;7.668;2024-01-27T12:27:56;6.70;99.90
2389;DHT22;1205;47.984;7.668;2024-01-27T12:30:26;6.80;99.90
2389;DHT22;1205;47.984;7.668;2024-01-27T12:32:52;6.80;99.90
2389;DHT22;1205;47.984;7.668;2024-01-27T12:35:17;6.80;99.90
2389;DHT22;1205;47.984;7.668;2024-01-27T12:37:44;6.90;99.90
2389;DHT22;1205;47.984;7.668;2024-01-27T12:40:19;6.90;99.90
2389;DHT22;1205;47.984;7.668;2024-01-27T12:42:45;7.00;99.90
2389;DHT22;1205;47.984;7.668;2024-01-27T12:45:11;7.00;99.90
2389;DHT22;1205;47.984;7.668;2024-01-27T12:47:37;7.10;99.90
2389;DHT22;1205;47.984;7.668;2024-01-27T12:50:04;7.10;99.90
2389;DHT22;1205;47.984;7.668;2024-01-27T12:52:29;7.10;99.90
2389;DHT22;1205;47.984;7.668;2024-01-27T12:54:55;7.20;99.90
2389;DHT22;1205;47.984;7.668;2024-01-27T12:57:20;7.20;99.90
2389;DHT22;1205;47.984;7.668;2024-01-27T12:59:46;7.30;99.90
2389;DHT22;1205;47.984;7.668;2024-01-27T13:02:11;7.30;99.90
2389;DHT22;1205;47.984;7.668;2024-01-27T13:04:37;7.30;99.90
2389;DHT22;1205;47.984;7.668;2024-01-27T13:07:03;7.40;99.90
2389;DHT22;1205;47.984;7.668;2024-01-27T13:09:28;7.40;99.90
2389;DHT22;1205;47.984;7.668;2024-01-27T13:11:54;7.40;99.90
2389;DHT22;1205;47.984;7.668;2024-01-27T13:14:19;7.50;99.90
2389;DHT22;1205;47.984;7.668;2024-01-27T13:16:46;7.50;99.90
2389;DHT22;1205;47.984;7.668;2024-01-27T13:19:11;7.60;99.90
2389;DHT22;1205;47.984;7.668;2024-01-27T13:21:37;7.50;99.90
2389;DHT22;1205;47.984;7.668;2024-01-27T13:24:05;7.60;99.90
2389;DHT22;1205;47.984;7.668;2024-01-27T13:26:31;7.50;99.90
2389;DHT22;1205;47.984;7.668;2024-01-27T13:28:57;7.50;99.90
2389;DHT22;1205;47.984;7.668;2024-01-27T13:31:23;7.60;99.90
2389;DHT22;1205;47.984;7.668;2024-01-27T13:33:49;7.60;99.90
2389;DHT22;1205;47.984;7.668;2024-01-27T13:36:14;7.60;99.90
2389;DHT22;1205;47.984;7.668;2024-01-27T13:38:40;7.60;99.90
2389;DHT22;1205;47.984;7.668;2024-01-27T13:41:05;7.60;99.90
2389;DHT22;1205;47.984;7.668;2024-01-27T13:43:31;7.60;99.90
2389;DHT22;1205;47.984;7.668;2024-01-27T13:45:56;7.60;99.90
2389;DHT22;1205;47.984;7.668;2024-01-27T13:48:22;7.70;99.90
2389;DHT22;1205;47.984;7.668;2024-01-27T13:50:48;7.70;99.90
2389;DHT22;1205;47.984;7.668;2024-01-27T13:53:13;7.80;99.90
2389;DHT22;1205;47.984;7.668;2024-01-27T13:55:39;7.80;99.90
2389;DHT22;1205;47.984;7.668;2024-01-27T13:58:06;7.90;99.90
2389;DHT22;1205;47.984;7.668;2024-01-27T14:00:31;7.90;99.90
2389;DHT22;1205;47.984;7.668;2024-01-27T14:02:58;8.00;99.90
2389;DHT22;1205;47.984;7.668;2024-01-27T14:05:24;8.00;99.90
2389;DHT22;1205;47.984;7.668;2024-01-27T14:07:50;8.10;99.90
2389;DHT22;1205;47.984;7.668;2024-01-27T14:10:15;8.10;99.90
2389;DHT22;1205;47.984;7.668;2024-01-27T14:12:41;8.10;99.90
2389;DHT22;1205;47.984;7.668;2024-01-27T14:15:07;8.10;99.90
2389;DHT22;1205;47.984;7.668;2024-01-27T14:17:34;8.10;99.90
2389;DHT22;1205;47.984;7.668;2024-01-27T14:20:03;8.10;99.90
2389;DHT22;1205;47.984;7.668;2024-01-27T14:22:29;8.10;99.90
2389;DHT22;1205;47.984;7.668;2024-01-27T14:24:55;8.10;99.90
2389;DHT22;1205;47.984;7.668;2024-01-27T14:27:21;8.10;99.90
2389;DHT22;1205;47.984;7.668;2024-01-27T14:29:54;8.10;99.90
2389;DHT22;1205;47.984;7.668;2024-01-27T14:32:20;8.10;99.90
2389;DHT22;1205;47.984;7.668;2024-01-27T14:34:46;8.20;99.90
2389;DHT22;1205;47.984;7.668;2024-01-27T14:37:14;8.20;99.90
2389;DHT22;1205;47.984;7.668;2024-01-27T14:39:44;8.20;99.90
2389;DHT22;1205;47.984;7.668;2024-01-27T14:42:14;8.20;99.90
2389;DHT22;1205;47.984;7.668;2024-01-27T14:44:40;8.20;99.90
2389;DHT22;1205;47.984;7.668;2024-01-27T14:47:08;8.20;99.90
2389;DHT22;1205;47.984;7.668;2024-01-27T14:49:34;8.20;99.90
2389;DHT22;1205;47.984;7.668;2024-01-27T14:52:02;8.30;99.90
2389;DHT22;1205;47.984;7.668;2024-01-27T14:54:27;8.30;99.90
2389;DHT22;1205;47.984;7.668;2024-01-27T14:56:53;8.20;99.90
2389;DHT22;1205;47.984;7.668;2024-01-27T14:59:18;8.20;99.90
2389;DHT22;1205;47.984;7.668;2024-01-27T15:01:44;8.30;99.90
2389;DHT22;1205;47.984;7.668;2024-01-27T15:04:12;8.30;99.90
2389;DHT22;1205;47.984;7.668;2024-01-27T15:06:38;8.20;99.90
2389;DHT22;1205;47.984;7.668;2024-01-27T15:09:04;8.30;99.90
2389;DHT22;1205;47.984;7.668;2024-01-27T15:11:29;8.20;99.90
2389;DHT22;1205;47.984;7.668;2024-01-27T15:13:55;8.20;99.90
2389;DHT22;1205;47.984;7.668;2024-01-27T15:16:20;8.10;99.90
2389;DHT22;1205;47.984;7.668;2024-01-27T15:18:47;8.10;99.90
2389;DHT22;1205;47.984;7.668;2024-01-27T15:21:12;8.10;99.90
2389;DHT22;1205;47.984;7.668;2024-01-27T15:23:38;8.10;99.90
2389;DHT22;1205;47.984;7.668;2024-01-27T15:26:07;8.20;99.90
2389;DHT22;1205;47.984;7.668;2024-01-27T15:28:34;8.20;99.90
2389;DHT22;1205;47.984;7.668;2024-01-27T15:31:00;8.20;99.90
2389;DHT22;1205;47.984;7.668;2024-01-27T15:33:25;8.30;99.90
2389;DHT22;1205;47.984;7.668;2024-01-27T15:35:51;8.30;99.90
2389;DHT22;1205;47.984;7.668;2024-01-27T15:38:17;8.30;99.90
2389;DHT22;1205;47.984;7.668;2024-01-27T15:40:43;8.30;99.90
2389;DHT22;1205;47.984;7.668;2024-01-27T15:43:08;8.30;99.90
2389;DHT22;1205;47.984;7.668;2024-01-27T15:45:34;8.30;99.90
2389;DHT22;1205;47.984;7.668;2024-01-27T15:48:00;8.10;99.90
2389;DHT22;1205;47.984;7.668;2024-01-27T15:50:26;8.00;99.90
2389;DHT22;1205;47.984;7.668;2024-01-27T15:52:56;8.00;99.90
2389;DHT22;1205;47.984;7.668;2024-01-27T15:55:23;7.90;99.90
2389;DHT22;1205;47.984;7.668;2024-01-27T15:57:49;7.80;99.90
2389;DHT22;1205;47.984;7.668;2024-01-27T16:00:15;7.80;99.90
2389;DHT22;1205;47.984;7.668;2024-01-27T16:02:41;7.80;99.90
2389;DHT22;1205;47.984;7.668;2024-01-27T16:05:07;7.70;99.90
2389;DHT22;1205;47.984;7.668;2024-01-27T16:07:33;7.80;99.90
2389;DHT22;1205;47.984;7.668;2024-01-27T16:09:58;7.70;99.90